Richmond Furnace, Pennsylvania
Current Conditions -  °F | °C
As of 2:53 PM on Sunday 21 Dec 2014 (Local Time) from KHGR Reporting Station
Clear Clear  
Wind Chill: 34°   Ceiling: Unl
Heat Index: 38°   Visibility: 9mi
Dew Point: 22°   Wind: 5mph
Humidity: 53%   Direction: 310°NW
Pressure: 30.27"   Gusts: NA
Location:  39.9814°N, 77.8809°W
Report Text: KHGR 211953Z 31004KT 9SM CLR 03/M06 A3027 RMK AO2 SLP266 T00331056
Loading
Personal Weather Stations






























Interactive Weather Map New forecast layout! Learn more

10-Day Weather Forecast

Advertisements
Track Severe Weather on mobile